Hodgenville, Kentucky
Current Conditions -  °F | °C
As of 4:58 AM on Tuesday 21 Oct 2014 (Local Time) from KFTK Reporting Station
Clear Clear  
Wind Chill: 45°   Ceiling: Unl
Heat Index: 45°   Visibility: 10mi
Dew Point: 44°   Wind: 3mph
Humidity: 95%   Direction: 270°W
Pressure: 29.97"   Gusts: NA
Location:  37.57°N, 85.74°W
Report Text: KFTK 210858Z AUTO 27003KT 10SM CLR 07/07 A2997 RMK AO2 SLP150 T00720065 51005
Loading
Personal Weather Stations






























Interactive Weather Map
Tropical Storm Tracking
New forecast layout! Learn more

10-Day Weather Forecast

Advertisements
Track Severe Weather on mobile